createdAt,value
2019-02-25T00:02:24.576Z,13.80
2019-02-25T00:07:30.550Z,14.77
2019-02-25T00:12:36.805Z,13.70
2019-02-25T00:17:42.858Z,13.77
2019-02-25T00:22:48.812Z,13.50
2019-02-25T00:27:54.753Z,12.80
2019-02-25T00:33:00.680Z,11.90
2019-02-25T00:38:06.686Z,11.77
2019-02-25T00:43:12.840Z,12.23
2019-02-25T00:48:20.671Z,12.80
2019-02-25T00:53:26.717Z,12.23
2019-02-25T00:58:34.273Z,12.20
2019-02-25T01:03:40.460Z,12.20
2019-02-25T01:08:46.481Z,13.30
2019-02-25T01:13:52.398Z,12.80
2019-02-25T01:18:58.268Z,12.43
2019-02-25T01:24:05.266Z,11.97
2019-02-25T01:29:11.489Z,11.30
2019-02-25T01:34:17.372Z,11.37
2019-02-25T01:39:23.381Z,11.63
2019-02-25T01:44:29.257Z,12.57
2019-02-25T01:49:35.135Z,11.27
2019-02-25T01:54:43.180Z,11.90
2019-02-25T01:59:49.033Z,11.33
2019-02-25T02:04:55.060Z,11.90
2019-02-25T02:10:01.024Z,11.57
2019-02-25T02:15:09.982Z,12.67
2019-02-25T02:20:16.252Z,11.33
2019-02-25T02:25:24.572Z,10.90
2019-02-25T02:30:30.564Z,10.23
2019-02-25T02:35:36.569Z,9.73
2019-02-25T02:40:42.529Z,11.50
2019-02-25T02:45:53.736Z,11.23
2019-02-25T02:50:59.624Z,10.60
2019-02-25T02:56:05.640Z,11.03
2019-02-25T03:01:11.794Z,10.87
2019-02-25T03:06:17.795Z,10.70
2019-02-25T03:11:23.697Z,10.20
2019-02-25T03:16:30.762Z,9.77
2019-02-25T03:21:36.608Z,9.37
2019-02-25T03:26:42.618Z,9.37
2019-02-25T03:31:48.757Z,9.13
2019-02-25T03:36:55.784Z,10.33
2019-02-25T03:42:03.270Z,9.13
2019-02-25T03:47:09.224Z,9.37
2019-02-25T03:52:15.204Z,9.47
2019-02-25T03:57:21.310Z,9.57
2019-02-25T04:02:27.429Z,9.33
2019-02-25T04:07:33.468Z,9.13
2019-02-25T04:12:40.480Z,8.90
2019-02-25T04:17:46.736Z,8.87
2019-02-25T04:22:52.768Z,8.77
2019-02-25T04:27:58.740Z,8.87
2019-02-25T04:33:04.756Z,7.73
2019-02-25T04:38:11.152Z,7.43
2019-02-25T04:43:18.367Z,8.00
2019-02-25T04:48:24.325Z,8.23
2019-02-25T04:53:32.452Z,8.17
2019-02-25T04:58:38.323Z,7.80
2019-02-25T05:03:44.348Z,9.40
2019-02-25T05:08:50.379Z,9.17
2019-02-25T05:13:56.446Z,9.43
2019-02-25T05:19:02.556Z,9.47
2019-02-25T05:24:08.696Z,9.70
2019-02-25T05:29:14.567Z,10.63
2019-02-25T05:34:20.674Z,11.27
2019-02-25T05:39:26.667Z,9.77
2019-02-25T05:44:32.763Z,10.30
2019-02-25T05:49:38.985Z,10.73
2019-02-25T05:54:45.002Z,10.60
2019-02-25T05:59:51.242Z,9.77
2019-02-25T06:04:57.128Z,10.37
2019-02-25T06:10:03.168Z,11.20
2019-02-25T06:15:09.932Z,11.80
2019-02-25T06:20:16.131Z,10.37
2019-02-25T06:25:22.202Z,9.87
2019-02-25T06:30:29.175Z,9.27
2019-02-25T06:35:36.886Z,9.07
2019-02-25T06:40:44.901Z,10.47
2019-02-25T06:45:50.996Z,10.57
2019-02-25T06:50:57.772Z,10.57
2019-02-25T06:56:03.919Z,10.90
2019-02-25T07:01:09.897Z,11.50
2019-02-25T07:06:20.645Z,11.60
2019-02-25T07:12:04.157Z,11.17
2019-02-25T07:17:41.592Z,11.10
2019-02-25T07:22:57.628Z,12.00
2019-02-25T07:28:19.946Z,11.50
2019-02-25T07:33:43.988Z,11.90
2019-02-25T07:39:20.029Z,11.80
2019-02-25T07:44:54.701Z,11.30
2019-02-25T07:50:19.759Z,12.20
2019-02-25T07:55:50.690Z,12.23
2019-02-25T08:01:17.729Z,11.53
2019-02-25T08:06:32.726Z,10.70
2019-02-25T08:11:56.479Z,11.40
2019-02-25T08:17:36.716Z,11.30
2019-02-25T08:23:00.721Z,11.33
2019-02-25T08:28:28.817Z,11.27
2019-02-25T08:33:48.863Z,11.03
2019-02-25T08:39:01.714Z,11.93
2019-02-25T08:44:15.916Z,11.20
2019-02-25T08:49:40.981Z,11.50
2019-02-25T08:54:47.096Z,11.60
2019-02-25T08:59:53.144Z,11.70
2019-02-25T09:04:59.521Z,11.63
2019-02-25T09:10:06.056Z,11.35
2019-02-25T09:15:13.403Z,11.73
2019-02-25T09:20:20.328Z,10.75
2019-02-25T09:25:26.298Z,10.35
2019-02-25T09:30:32.296Z,10.25
2019-02-25T09:35:38.397Z,9.90
2019-02-25T09:40:44.404Z,10.18
2019-02-25T09:45:50.462Z,9.85
2019-02-25T09:50:58.577Z,10.38
2019-02-25T09:56:04.701Z,10.38
2019-02-25T10:01:11.672Z,11.20
2019-02-25T10:06:17.619Z,10.88
2019-02-25T10:11:24.241Z,10.18
2019-02-25T10:16:30.116Z,9.80
2019-02-25T10:21:36.081Z,8.83
2019-02-25T10:26:43.037Z,9.70
2019-02-25T10:31:49.129Z,9.38
2019-02-25T10:36:57.217Z,19.45
2019-02-25T10:42:03.309Z,10.45
2019-02-25T10:47:10.949Z,8.88
2019-02-25T10:52:17.455Z,7.70
2019-02-25T10:57:27.192Z,7.40
2019-02-25T11:02:33.179Z,7.47
2019-02-25T11:07:39.829Z,7.42
2019-02-25T11:12:47.152Z,6.67
2019-02-25T11:17:53.914Z,5.78
2019-02-25T11:23:00.229Z,5.87
2019-02-25T11:28:08.903Z,5.85
2019-02-25T11:33:14.806Z,5.70
2019-02-25T11:38:20.915Z,5.40
2019-02-25T11:43:27.006Z,4.75
2019-02-25T11:48:33.065Z,4.85
2019-02-25T11:53:39.064Z,4.58
2019-02-25T11:58:45.982Z,4.28
2019-02-25T12:03:52.141Z,4.45
2019-02-25T12:08:58.158Z,4.67
2019-02-25T12:14:04.269Z,5.00
2019-02-25T12:19:17.716Z,4.62
2019-02-25T12:24:18.446Z,5.10
2019-02-25T12:29:24.464Z,5.20
2019-02-25T12:34:31.296Z,4.65
2019-02-25T12:39:37.277Z,4.75
2019-02-25T12:44:43.438Z,5.08
2019-02-25T12:49:49.651Z,5.60
2019-02-25T12:54:55.674Z,5.10
2019-02-25T13:00:02.861Z,4.62
2019-02-25T13:05:12.223Z,4.97
2019-02-25T13:10:20.076Z,5.50
2019-02-25T13:15:26.922Z,5.15
2019-02-25T13:20:33.054Z,5.40
2019-02-25T13:25:39.193Z,5.10
2019-02-25T13:30:45.293Z,6.00
2019-02-25T13:35:53.985Z,5.58
2019-02-25T13:41:00.094Z,5.85
2019-02-25T13:46:06.519Z,5.80
2019-02-25T13:51:12.752Z,5.70
2019-02-25T13:56:18.953Z,6.15
2019-02-25T14:01:28.842Z,6.08
2019-02-25T14:06:34.261Z,5.83
2019-02-25T14:11:40.412Z,5.47
2019-02-25T14:16:47.275Z,5.72
2019-02-25T14:21:56.708Z,7.35
2019-02-25T14:27:03.630Z,6.80
2019-02-25T14:32:11.059Z,6.00
2019-02-25T14:37:19.701Z,6.55
2019-02-25T14:42:28.410Z,6.47
2019-02-25T14:47:37.017Z,6.10
2019-02-25T14:52:42.002Z,5.72
2019-02-25T14:57:48.180Z,6.08
2019-02-25T15:02:54.815Z,5.65
2019-02-25T15:08:00.869Z,5.60
2019-02-25T15:13:08.892Z,5.40
2019-02-25T15:18:16.093Z,5.87
2019-02-25T15:23:23.758Z,5.67
2019-02-25T15:28:29.922Z,5.37
2019-02-25T15:33:39.839Z,5.10
2019-02-25T15:38:45.955Z,5.75
2019-02-25T15:43:52.257Z,5.10
2019-02-25T15:48:58.431Z,5.30
2019-02-25T15:54:05.170Z,5.22
2019-02-25T15:59:11.681Z,4.95
2019-02-25T16:04:18.104Z,5.45
2019-02-25T16:09:25.938Z,6.20
2019-02-25T16:14:33.029Z,5.40
2019-02-25T16:19:45.463Z,4.70
2019-02-25T16:24:47.040Z,5.53
2019-02-25T16:29:53.727Z,5.78
2019-02-25T16:35:02.725Z,5.55
2019-02-25T16:40:10.618Z,5.50
2019-02-25T16:45:18.305Z,5.60
2019-02-25T16:50:25.263Z,5.50
2019-02-25T16:55:31.446Z,5.33
2019-02-25T17:00:39.005Z,5.53
2019-02-25T17:05:48.532Z,5.85
2019-02-25T17:10:56.061Z,6.08
2019-02-25T17:16:04.774Z,5.83
2019-02-25T17:21:11.017Z,6.00
2019-02-25T17:26:17.892Z,6.37
2019-02-25T17:31:24.969Z,6.42
2019-02-25T17:36:31.214Z,7.15
2019-02-25T17:41:39.841Z,7.05
2019-02-25T17:46:46.475Z,7.10
2019-02-25T17:51:53.292Z,7.65
2019-02-25T17:57:02.780Z,7.75
2019-02-25T18:02:10.491Z,7.83
2019-02-25T18:07:17.041Z,8.48
2019-02-25T18:12:25.446Z,8.65
2019-02-25T18:17:31.422Z,8.73
2019-02-25T18:22:37.701Z,8.48
2019-02-25T18:27:47.751Z,8.90
2019-02-25T18:32:52.636Z,8.90
2019-02-25T18:38:02.052Z,14.53
2019-02-25T18:43:07.768Z,10.05
2019-02-25T18:48:14.309Z,10.80
2019-02-25T18:53:21.207Z,10.27
2019-02-25T18:58:28.393Z,9.67
2019-02-25T19:03:35.501Z,9.88
2019-02-25T19:08:43.504Z,9.78
2019-02-25T19:13:51.640Z,10.40
2019-02-25T19:18:57.474Z,9.68
2019-02-25T19:24:05.579Z,10.90
2019-02-25T19:29:12.505Z,9.35
2019-02-25T19:34:19.440Z,10.23
2019-02-25T19:39:26.549Z,10.17
2019-02-25T19:44:34.170Z,8.80
2019-02-25T19:49:41.310Z,8.73
2019-02-25T19:54:50.523Z,8.33
2019-02-25T19:59:57.813Z,8.97
2019-02-25T20:05:11.507Z,8.50
2019-02-25T20:10:14.144Z,8.97
2019-02-25T20:15:25.078Z,10.10
2019-02-25T20:20:37.020Z,9.97
2019-02-25T20:25:46.508Z,11.73
2019-02-25T20:30:51.608Z,15.80
2019-02-25T20:36:00.516Z,15.90
2019-02-25T20:41:06.476Z,12.23
2019-02-25T20:46:12.673Z,12.37
2019-02-25T20:51:18.731Z,13.63
2019-02-25T20:56:28.603Z,11.73
2019-02-25T21:01:37.202Z,11.10
2019-02-25T21:06:43.931Z,10.13
2019-02-25T21:11:50.255Z,9.67
2019-02-25T21:16:57.994Z,12.13
2019-02-25T21:22:04.512Z,10.40
2019-02-25T21:27:11.629Z,9.27
2019-02-25T21:32:19.953Z,9.90
2019-02-25T21:37:27.241Z,10.40
2019-02-25T21:42:34.147Z,10.23
2019-02-25T21:47:40.289Z,10.40
2019-02-25T21:52:47.969Z,10.63
2019-02-25T21:57:54.911Z,12.27
2019-02-25T22:03:01.881Z,10.13
2019-02-25T22:08:08.057Z,10.03
2019-02-25T22:13:15.938Z,11.13
2019-02-25T22:18:21.745Z,11.23
2019-02-25T22:23:28.430Z,9.73
2019-02-25T22:28:37.614Z,10.83
2019-02-25T22:33:43.091Z,11.17
2019-02-25T22:38:49.530Z,10.47
2019-02-25T22:43:55.607Z,10.07
2019-02-25T22:49:02.911Z,10.83
2019-02-25T22:54:10.306Z,10.47
2019-02-25T22:59:19.926Z,11.67
2019-02-25T23:04:26.517Z,11.93
2019-02-25T23:09:32.768Z,12.67
2019-02-25T23:14:40.432Z,12.93
2019-02-25T23:19:46.710Z,13.23
2019-02-25T23:24:52.672Z,13.63
2019-02-25T23:29:58.765Z,11.70
2019-02-25T23:35:04.972Z,13.47
2019-02-25T23:40:12.508Z,14.77
2019-02-25T23:45:21.221Z,12.73
2019-02-25T23:50:27.968Z,11.97
2019-02-25T23:55:34.696Z,12.40
